Time,TemperatureF,DewpointF,PressureIn,WindDirection,WindDirectionDegrees,WindSpeedMPH,WindSpeedGustMPH,Humidity,HourlyPrecipIn,Conditions,Clouds,dailyrainin,SoftwareType,DateUTC
2013-02-04 00:02:00,25.7,22.1,30.11,SE,124,1.0,2.0,86,0.00,,,0.00,Wunderground v.1.15,2013-02-04 06:02:00,
2013-02-04 00:07:00,25.6,22.0,30.11,SE,127,0.0,2.0,86,0.00,,,0.00,Wunderground v.1.15,2013-02-04 06:07:00,
2013-02-04 00:13:00,25.4,22.1,30.10,ESE,115,0.0,0.0,87,0.00,,,0.00,Wunderground v.1.15,2013-02-04 06:13:00,
2013-02-04 00:18:00,25.3,22.0,30.10,ESE,103,0.0,1.0,87,0.00,,,0.00,Wunderground v.1.15,2013-02-04 06:18:00,
2013-02-04 00:23:00,25.2,21.9,30.10,ESE,114,0.0,1.0,87,0.00,,,0.00,Wunderground v.1.15,2013-02-04 06:23:00,
2013-02-04 00:28:00,25.2,21.9,30.10,SE,131,0.0,1.0,87,0.00,,,0.00,Wunderground v.1.15,2013-02-04 06:28:00,
2013-02-04 00:34:00,25.2,21.9,30.10,ESE,115,0.0,1.0,87,0.00,,,0.00,Wunderground v.1.15,2013-02-04 06:34:00,
2013-02-04 00:39:00,25.1,21.8,30.10,South,172,0.0,1.0,87,0.00,,,0.00,Wunderground v.1.15,2013-02-04 06:39:00,
2013-02-04 00:45:00,25.0,21.7,30.10,SE,132,0.0,0.0,87,0.00,,,0.00,Wunderground v.1.15,2013-02-04 06:45:00,
2013-02-04 00:50:00,24.8,21.8,30.10,SE,134,0.0,0.0,88,0.00,,,0.00,Wunderground v.1.15,2013-02-04 06:50:00,
2013-02-04 00:55:00,24.5,21.5,30.09,ESE,115,0.0,0.0,88,0.00,,,0.00,Wunderground v.1.15,2013-02-04 06:55:00,
2013-02-04 01:00:00,24.3,21.3,30.09,ESE,115,0.0,0.0,88,0.00,,,0.00,Wunderground v.1.15,2013-02-04 07:00:00,
2013-02-04 01:06:00,24.3,21.3,30.09,ESE,114,0.0,0.0,88,0.00,,,0.00,Wunderground v.1.15,2013-02-04 07:06:00,
2013-02-04 01:11:00,24.3,21.3,30.09,SE,139,0.0,0.0,88,0.00,,,0.00,Wunderground v.1.15,2013-02-04 07:11:00,
2013-02-04 01:16:00,24.3,21.3,30.08,ESE,107,0.0,0.0,88,0.00,,,0.00,Wunderground v.1.15,2013-02-04 07:16:00,
2013-02-04 01:21:00,24.1,21.1,30.09,SSW,202,0.0,0.0,88,0.00,,,0.00,Wunderground v.1.15,2013-02-04 07:21:00,
2013-02-04 01:27:00,23.8,21.0,30.08,SSW,201,0.0,0.0,89,0.00,,,0.00,Wunderground v.1.15,2013-02-04 07:27:00,
2013-02-04 01:32:00,23.5,20.7,30.09,SSW,201,0.0,0.0,89,0.00,,,0.00,Wunderground v.1.15,2013-02-04 07:32:00,
2013-02-04 01:37:00,23.3,20.5,30.09,SSW,200,0.0,0.0,89,0.00,,,0.00,Wunderground v.1.15,2013-02-04 07:37:00,
2013-02-04 01:42:00,23.2,20.7,30.08,SE,128,0.0,0.0,90,0.00,,,0.00,Wunderground v.1.15,2013-02-04 07:42:00,
2013-02-04 01:47:00,23.1,20.6,30.08,SE,128,0.0,0.0,90,0.00,,,0.00,Wunderground v.1.15,2013-02-04 07:47:00,
2013-02-04 01:52:00,23.1,20.6,30.08,SE,126,0.0,1.0,90,0.00,,,0.00,Wunderground v.1.15,2013-02-04 07:52:00,
2013-02-04 01:58:00,23.2,20.7,30.07,SSE,158,0.0,1.0,90,0.00,,,0.00,Wunderground v.1.15,2013-02-04 07:58:00,
2013-02-04 02:03:00,23.3,20.8,30.07,ESE,119,0.0,1.0,90,0.00,,,0.00,Wunderground v.1.15,2013-02-04 08:03:00,
2013-02-04 02:08:00,23.4,20.9,30.08,ESE,111,0.0,1.0,90,0.00,,,0.00,Wunderground v.1.15,2013-02-04 08:08:00,
2013-02-04 02:14:00,23.4,21.2,30.08,ESE,115,0.0,0.0,91,0.00,,,0.00,Wunderground v.1.15,2013-02-04 08:14:00,
2013-02-04 02:19:00,23.5,21.3,30.08,ESE,113,0.0,0.0,91,0.00,,,0.00,Wunderground v.1.15,2013-02-04 08:19:00,
2013-02-04 02:24:00,23.8,21.6,30.07,South,188,0.0,1.0,91,0.00,,,0.00,Wunderground v.1.15,2013-02-04 08:24:00,
2013-02-04 02:29:00,24.2,22.0,30.07,ESE,110,0.0,1.0,91,0.00,,,0.00,Wunderground v.1.15,2013-02-04 08:29:00,
2013-02-04 02:34:00,24.5,22.0,30.07,East,82,0.0,1.0,90,0.00,,,0.00,Wunderground v.1.15,2013-02-04 08:34:00,
2013-02-04 02:40:00,24.9,22.4,30.07,SE,141,0.0,0.0,90,0.00,,,0.00,Wunderground v.1.15,2013-02-04 08:40:00,
2013-02-04 02:45:00,25.2,22.7,30.06,SE,132,0.0,2.0,90,0.00,,,0.00,Wunderground v.1.15,2013-02-04 08:45:00,
2013-02-04 02:50:00,25.4,22.9,30.06,SSE,148,0.0,0.0,90,0.00,,,0.00,Wunderground v.1.15,2013-02-04 08:50:00,
2013-02-04 02:55:00,25.7,22.9,30.05,East,91,1.0,2.0,89,0.00,,,0.00,Wunderground v.1.15,2013-02-04 08:55:00,
2013-02-04 03:00:00,26.1,23.3,30.05,ESE,108,1.0,1.0,89,0.00,,,0.00,Wunderground v.1.15,2013-02-04 09:00:00,
2013-02-04 03:06:00,26.6,23.5,30.04,SSE,151,2.0,5.0,88,0.00,,,0.00,Wunderground v.1.15,2013-02-04 09:06:00,
2013-02-04 03:11:00,26.9,23.5,30.04,SSE,155,2.0,2.0,87,0.00,,,0.00,Wunderground v.1.15,2013-02-04 09:11:00,
2013-02-04 03:16:00,27.1,23.5,30.03,SE,133,2.0,5.0,86,0.00,,,0.00,Wunderground v.1.15,2013-02-04 09:16:00,
2013-02-04 03:22:00,27.3,23.4,30.03,ESE,118,2.0,2.0,85,0.00,,,0.00,Wunderground v.1.15,2013-02-04 09:22:00,
2013-02-04 03:27:00,27.4,23.5,30.03,ESE,122,2.0,4.0,85,0.00,,,0.00,Wunderground v.1.15,2013-02-04 09:27:00,
2013-02-04 03:32:00,27.5,23.6,30.03,East,81,1.0,4.0,85,0.00,,,0.00,Wunderground v.1.15,2013-02-04 09:32:00,
2013-02-04 03:37:00,27.7,23.8,30.03,ESE,120,1.0,7.0,85,0.00,,,0.00,Wunderground v.1.15,2013-02-04 09:37:00,
2013-02-04 03:43:00,27.7,23.8,30.03,SE,141,1.0,1.0,85,0.00,,,0.00,Wunderground v.1.15,2013-02-04 09:43:00,
2013-02-04 03:48:00,27.6,23.7,30.03,SSE,166,0.0,2.0,85,0.00,,,0.00,Wunderground v.1.15,2013-02-04 09:48:00,
2013-02-04 03:53:00,27.5,23.6,30.03,ESE,110,0.0,0.0,85,0.00,,,0.00,Wunderground v.1.15,2013-02-04 09:53:00,
2013-02-04 03:58:00,27.5,23.6,30.02,SSE,160,1.0,2.0,85,0.00,,,0.00,Wunderground v.1.15,2013-02-04 09:58:00,
2013-02-04 04:03:00,27.5,23.6,30.03,East,82,1.0,1.0,85,0.00,,,0.00,Wunderground v.1.15,2013-02-04 10:03:00,
2013-02-04 04:09:00,27.6,23.7,30.02,ESE,119,0.0,1.0,85,0.00,,,0.00,Wunderground v.1.15,2013-02-04 10:09:00,
2013-02-04 04:14:00,27.8,23.9,30.02,East,93,1.0,3.0,85,0.00,,,0.00,Wunderground v.1.15,2013-02-04 10:14:00,
2013-02-04 04:19:00,27.9,24.0,30.02,ESE,119,1.0,3.0,85,0.00,,,0.00,Wunderground v.1.15,2013-02-04 10:19:00,
2013-02-04 04:24:00,28.0,24.1,30.01,SE,124,1.0,3.0,85,0.00,,,0.00,Wunderground v.1.15,2013-02-04 10:24:00,
2013-02-04 04:30:00,28.1,24.2,30.01,SSE,150,1.0,1.0,85,0.00,,,0.00,Wunderground v.1.15,2013-02-04 10:30:00,
2013-02-04 04:35:00,28.2,24.0,30.01,East,100,2.0,5.0,84,0.00,,,0.00,Wunderground v.1.15,2013-02-04 10:35:00,
2013-02-04 04:40:00,28.3,24.1,30.00,ESE,114,1.0,2.0,84,0.00,,,0.00,Wunderground v.1.15,2013-02-04 10:40:00,
2013-02-04 04:45:00,28.3,24.1,30.00,SE,143,1.0,3.0,84,0.00,,,0.00,Wunderground v.1.15,2013-02-04 10:45:00,
2013-02-04 04:50:00,28.4,24.2,30.00,East,99,1.0,1.0,84,0.00,,,0.00,Wunderground v.1.15,2013-02-04 10:50:00,
2013-02-04 04:55:00,28.4,24.2,30.00,SSE,165,1.0,1.0,84,0.00,,,0.00,Wunderground v.1.15,2013-02-04 10:55:00,
2013-02-04 05:00:00,28.5,24.0,30.00,ENE,77,1.0,2.0,83,0.00,,,0.00,Wunderground v.1.15,2013-02-04 11:00:00,
2013-02-04 05:06:00,28.6,24.4,30.00,SSE,153,2.0,2.0,84,0.00,,,0.00,Wunderground v.1.15,2013-02-04 11:06:00,
2013-02-04 05:11:00,28.6,24.1,29.99,ESE,117,2.0,3.0,83,0.00,,,0.00,Wunderground v.1.15,2013-02-04 11:11:00,
2013-02-04 05:16:00,28.7,24.5,29.99,NW,315,2.0,3.0,84,0.00,,,0.00,Wunderground v.1.15,2013-02-04 11:16:00,
2013-02-04 05:21:00,28.8,24.9,29.98,ESE,108,1.0,3.0,85,0.00,,,0.00,Wunderground v.1.15,2013-02-04 11:21:00,
2013-02-04 05:26:00,28.8,24.9,29.98,East,99,1.0,3.0,85,0.00,,,0.00,Wunderground v.1.15,2013-02-04 11:26:00,
2013-02-04 05:32:00,28.9,24.7,29.98,ENE,65,2.0,5.0,84,0.00,,,0.00,Wunderground v.1.15,2013-02-04 11:32:00,
2013-02-04 05:38:00,29.1,24.9,29.98,ESE,111,2.0,5.0,84,0.00,,,0.00,Wunderground v.1.15,2013-02-04 11:38:00,
2013-02-04 05:43:00,29.2,25.0,29.98,East,90,2.0,3.0,84,0.00,,,0.00,Wunderground v.1.15,2013-02-04 11:43:00,
2013-02-04 05:49:00,29.3,25.1,29.97,SE,124,2.0,5.0,84,0.00,,,0.00,Wunderground v.1.15,2013-02-04 11:49:00,
2013-02-04 05:54:00,29.4,25.2,29.97,ESE,105,2.0,5.0,84,0.00,,,0.00,Wunderground v.1.15,2013-02-04 11:54:00,
2013-02-04 05:59:00,29.5,25.3,29.98,SSW,195,1.0,5.0,84,0.00,,,0.00,Wunderground v.1.15,2013-02-04 11:59:00,
2013-02-04 06:05:00,29.6,25.1,29.98,SE,136,1.0,4.0,83,0.00,,,0.00,Wunderground v.1.15,2013-02-04 12:05:00,
2013-02-04 06:10:00,29.7,25.2,29.98,SSE,156,1.0,1.0,83,0.00,,,0.00,Wunderground v.1.15,2013-02-04 12:10:00,
2013-02-04 06:15:00,29.8,25.6,29.97,SSW,205,1.0,3.0,84,0.00,,,0.00,Wunderground v.1.15,2013-02-04 12:15:00,
2013-02-04 06:20:00,30.0,25.5,29.97,SE,132,2.0,2.0,83,0.00,,,0.00,Wunderground v.1.15,2013-02-04 12:20:00,
2013-02-04 06:26:00,30.1,25.6,29.97,ESE,112,2.0,7.0,83,0.00,,,0.00,Wunderground v.1.15,2013-02-04 12:26:00,
2013-02-04 06:31:00,30.2,25.7,29.97,SSE,166,2.0,2.0,83,0.00,,,0.00,Wunderground v.1.15,2013-02-04 12:31:00,
2013-02-04 06:37:00,30.3,26.0,29.96,ESE,111,2.0,7.0,84,0.00,,,0.00,Wunderground v.1.15,2013-02-04 12:37:00,
2013-02-04 06:42:00,30.4,25.9,29.96,ENE,64,3.0,3.0,83,0.00,,,0.00,Wunderground v.1.15,2013-02-04 12:42:00,
2013-02-04 06:47:00,30.5,26.0,29.96,ESE,114,3.0,4.0,83,0.00,,,0.00,Wunderground v.1.15,2013-02-04 12:47:00,
2013-02-04 06:52:00,30.6,26.1,29.96,SSE,159,2.0,7.0,83,0.00,,,0.00,Wunderground v.1.15,2013-02-04 12:52:00,
2013-02-04 06:58:00,30.7,26.4,29.96,SE,134,2.0,7.0,84,0.00,,,0.00,Wunderground v.1.15,2013-02-04 12:58:00,
2013-02-04 07:04:00,30.7,26.4,29.95,East,81,2.0,3.0,84,0.00,,,0.00,Wunderground v.1.15,2013-02-04 13:04:00,
2013-02-04 07:09:00,30.8,26.5,29.96,SSE,166,2.0,3.0,84,0.00,,,0.00,Wunderground v.1.15,2013-02-04 13:09:00,
2013-02-04 07:14:00,30.8,26.5,29.96,East,91,2.0,6.0,84,0.00,,,0.00,Wunderground v.1.15,2013-02-04 13:14:00,
2013-02-04 07:19:00,30.9,26.6,29.95,ESE,113,2.0,6.0,84,0.00,,,0.00,Wunderground v.1.15,2013-02-04 13:19:00,
2013-02-04 07:24:00,31.0,27.0,29.94,WSW,256,1.0,2.0,85,0.00,,,0.00,Wunderground v.1.15,2013-02-04 13:24:00,
2013-02-04 07:30:00,31.1,27.1,29.95,South,172,1.0,1.0,85,0.00,,,0.00,Wunderground v.1.15,2013-02-04 13:30:00,
2013-02-04 07:36:00,31.3,27.3,29.94,ESE,105,1.0,5.0,85,0.00,,,0.00,Wunderground v.1.15,2013-02-04 13:36:00,
2013-02-04 07:41:00,31.4,27.4,29.94,SSE,155,2.0,2.0,85,0.00,,,0.00,Wunderground v.1.15,2013-02-04 13:41:00,
2013-02-04 07:46:00,31.6,27.6,29.94,SSE,150,2.0,4.0,85,0.00,,,0.00,Wunderground v.1.15,2013-02-04 13:46:00,
2013-02-04 07:52:00,31.8,27.8,29.94,SE,129,1.0,3.0,85,0.00,,,0.00,Wunderground v.1.15,2013-02-04 13:52:00,
2013-02-04 07:57:00,32.0,28.0,29.93,SSE,148,1.0,3.0,85,0.00,,,0.00,Wunderground v.1.15,2013-02-04 13:57:00,
2013-02-04 08:03:00,32.2,28.2,29.93,SE,130,1.0,3.0,85,0.00,,,0.00,Wunderground v.1.15,2013-02-04 14:03:00,
2013-02-04 08:08:00,32.5,28.5,29.92,ESE,113,2.0,4.0,85,0.00,,,0.00,Wunderground v.1.15,2013-02-04 14:08:00,
2013-02-04 08:13:00,32.7,28.4,29.92,ESE,122,2.0,3.0,84,0.00,,,0.00,Wunderground v.1.15,2013-02-04 14:13:00,
2013-02-04 08:18:00,32.9,28.6,29.93,SSW,200,2.0,5.0,84,0.00,,,0.00,Wunderground v.1.15,2013-02-04 14:18:00,
2013-02-04 08:24:00,33.1,28.8,29.92,SE,132,1.0,3.0,84,0.00,,,0.00,Wunderground v.1.15,2013-02-04 14:24:00,
2013-02-04 08:29:00,33.3,29.0,29.92,WSW,250,1.0,3.0,84,0.00,,,0.00,Wunderground v.1.15,2013-02-04 14:29:00,
2013-02-04 08:34:00,33.6,29.3,29.93,SE,142,1.0,6.0,84,0.00,,,0.00,Wunderground v.1.15,2013-02-04 14:34:00,
2013-02-04 08:39:00,33.9,29.3,29.93,South,172,2.0,6.0,83,0.00,,,0.00,Wunderground v.1.15,2013-02-04 14:39:00,
2013-02-04 08:44:00,34.1,29.2,29.92,WSW,242,3.0,4.0,82,0.00,,,0.00,Wunderground v.1.15,2013-02-04 14:44:00,
2013-02-04 08:50:00,34.3,29.4,29.92,ESE,122,2.0,5.0,82,0.00,,,0.00,Wunderground v.1.15,2013-02-04 14:50:00,
2013-02-04 08:56:00,34.4,29.5,29.92,West,281,2.0,5.0,82,0.00,,,0.00,Wunderground v.1.15,2013-02-04 14:56:00,
2013-02-04 09:02:00,34.6,29.7,29.91,NNE,15,2.0,3.0,82,0.00,,,0.00,Wunderground v.1.15,2013-02-04 15:02:00,
2013-02-04 09:07:00,34.8,29.9,29.91,SSW,197,2.0,6.0,82,0.00,,,0.00,Wunderground v.1.15,2013-02-04 15:07:00,
2013-02-04 09:12:00,34.9,30.0,29.91,South,178,2.0,3.0,82,0.00,,,0.00,Wunderground v.1.15,2013-02-04 15:12:00,
2013-02-04 09:17:00,35.0,30.1,29.91,SSW,200,3.0,5.0,82,0.00,,,0.00,Wunderground v.1.15,2013-02-04 15:17:00,
2013-02-04 09:22:00,35.0,30.1,29.91,WSW,246,3.0,7.0,82,0.00,,,0.00,Wunderground v.1.15,2013-02-04 15:22:00,
2013-02-04 09:27:00,35.3,30.1,29.90,ESE,121,2.0,7.0,81,0.00,,,0.00,Wunderground v.1.15,2013-02-04 15:27:00,
2013-02-04 09:33:00,35.5,29.9,29.91,WNW,288,3.0,4.0,80,0.00,,,0.00,Wunderground v.1.15,2013-02-04 15:33:00,
2013-02-04 09:38:00,35.6,30.0,29.90,SW,228,3.0,6.0,80,0.00,,,0.00,Wunderground v.1.15,2013-02-04 15:38:00,
2013-02-04 09:43:00,35.9,30.6,29.88,ESE,105,3.0,6.0,81,0.00,,,0.00,Wunderground v.1.15,2013-02-04 15:43:00,
2013-02-04 09:48:00,36.1,30.8,29.89,SSE,152,2.0,6.0,81,0.00,,,0.00,Wunderground v.1.15,2013-02-04 15:48:00,
2013-02-04 09:53:00,36.3,30.7,29.87,SE,134,3.0,6.0,80,0.00,,,0.00,Wunderground v.1.15,2013-02-04 15:53:00,
2013-02-04 09:58:00,36.5,30.6,29.88,SE,141,3.0,6.0,79,0.00,,,0.00,Wunderground v.1.15,2013-02-04 15:58:00,
2013-02-04 10:04:00,36.6,30.7,29.91,NW,307,4.0,9.0,79,0.00,,,0.00,Wunderground v.1.15,2013-02-04 16:04:00,
2013-02-04 10:09:00,36.3,30.4,29.90,West,274,6.0,9.0,79,0.00,,,0.00,Wunderground v.1.15,2013-02-04 16:09:00,
2013-02-04 10:15:00,36.5,30.6,29.91,West,260,5.0,7.0,79,0.00,,,0.00,Wunderground v.1.15,2013-02-04 16:15:00,
2013-02-04 10:20:00,36.4,30.8,29.92,NW,305,3.0,4.0,80,0.00,,,0.00,Wunderground v.1.15,2013-02-04 16:20:00,
2013-02-04 10:25:00,36.2,30.6,29.90,SW,224,3.0,4.0,80,0.00,,,0.00,Wunderground v.1.15,2013-02-04 16:25:00,
2013-02-04 10:30:00,36.3,30.7,29.91,WNW,290,2.0,2.0,80,0.00,,,0.00,Wunderground v.1.15,2013-02-04 16:30:00,
2013-02-04 10:35:00,36.2,30.9,29.91,SE,130,2.0,5.0,81,0.00,,,0.00,Wunderground v.1.15,2013-02-04 16:35:00,
2013-02-04 10:40:00,36.3,31.0,29.92,NW,311,2.0,2.0,81,0.00,,,0.00,Wunderground v.1.15,2013-02-04 16:40:00,
2013-02-04 10:46:00,36.5,31.5,29.90,WSW,252,2.0,5.0,82,0.00,,,0.00,Wunderground v.1.15,2013-02-04 16:46:00,
2013-02-04 10:51:00,36.7,31.1,29.91,NNW,345,2.0,3.0,80,0.00,,,0.00,Wunderground v.1.15,2013-02-04 16:51:00,
2013-02-04 10:56:00,36.9,31.6,29.91,NNW,343,2.0,4.0,81,0.00,,,0.00,Wunderground v.1.15,2013-02-04 16:56:00,
2013-02-04 11:02:00,37.2,32.2,29.91,NW,323,1.0,4.0,82,0.00,,,0.00,Wunderground v.1.15,2013-02-04 17:02:00,
2013-02-04 11:07:00,37.7,32.1,29.91,NNW,332,1.0,4.0,80,0.00,,,0.00,Wunderground v.1.15,2013-02-04 17:07:00,
2013-02-04 11:12:00,38.0,31.4,29.90,SSE,152,1.0,3.0,77,0.00,,,0.00,Wunderground v.1.15,2013-02-04 17:12:00,
2013-02-04 11:18:00,38.7,32.4,29.90,WNW,297,1.0,5.0,78,0.00,,,0.00,Wunderground v.1.15,2013-02-04 17:18:00,
2013-02-04 11:23:00,39.0,32.1,29.90,West,267,2.0,3.0,76,0.00,,,0.00,Wunderground v.1.15,2013-02-04 17:23:00,
2013-02-04 11:28:00,39.2,31.6,29.89,SSW,207,2.0,3.0,74,0.00,,,0.00,Wunderground v.1.15,2013-02-04 17:28:00,
2013-02-04 11:34:00,39.4,31.5,29.89,WSW,239,2.0,2.0,73,0.00,,,0.00,Wunderground v.1.15,2013-02-04 17:34:00,
2013-02-04 11:39:00,39.6,31.7,29.89,WNW,284,2.0,6.0,73,0.00,,,0.00,Wunderground v.1.15,2013-02-04 17:39:00,
2013-02-04 11:44:00,39.9,32.3,29.88,WSW,247,2.0,3.0,74,0.00,,,0.00,Wunderground v.1.15,2013-02-04 17:44:00,
2013-02-04 11:49:00,40.1,32.1,29.88,West,278,1.0,3.0,73,0.00,,,0.00,Wunderground v.1.15,2013-02-04 17:49:00,
2013-02-04 11:54:00,40.1,31.8,29.88,SSW,207,1.0,2.0,72,0.00,,,0.00,Wunderground v.1.15,2013-02-04 17:54:00,
2013-02-04 12:00:00,40.2,32.6,29.87,SW,226,1.0,3.0,74,0.00,,,0.00,Wunderground v.1.15,2013-02-04 18:00:00,
2013-02-04 12:06:00,40.7,32.7,29.87,South,177,2.0,4.0,73,0.00,,,0.00,Wunderground v.1.15,2013-02-04 18:06:00,
2013-02-04 12:11:00,41.1,32.8,29.87,South,180,2.0,3.0,72,0.00,,,0.00,Wunderground v.1.15,2013-02-04 18:11:00,
2013-02-04 12:16:00,41.3,32.6,29.86,WSW,238,2.0,6.0,71,0.00,,,0.00,Wunderground v.1.15,2013-02-04 18:16:00,
2013-02-04 12:21:00,41.3,32.6,29.86,SW,232,3.0,5.0,71,0.00,,,0.00,Wunderground v.1.15,2013-02-04 18:21:00,
2013-02-04 12:26:00,41.0,32.7,29.86,West,259,2.0,5.0,72,0.00,,,0.00,Wunderground v.1.15,2013-02-04 18:26:00,
2013-02-04 12:32:00,40.7,32.0,29.87,WSW,253,2.0,5.0,71,0.00,,,0.00,Wunderground v.1.15,2013-02-04 18:32:00,
2013-02-04 12:37:00,40.4,32.4,29.86,WSW,242,3.0,5.0,73,0.00,,,0.00,Wunderground v.1.15,2013-02-04 18:37:00,
2013-02-04 12:42:00,40.2,32.6,29.86,WNW,287,2.0,3.0,74,0.00,,,0.00,Wunderground v.1.15,2013-02-04 18:42:00,
2013-02-04 12:47:00,40.0,33.4,29.86,SSE,162,1.0,3.0,77,0.00,,,0.00,Wunderground v.1.15,2013-02-04 18:47:00,
2013-02-04 12:52:00,40.2,33.6,29.86,West,269,1.0,1.0,77,0.00,,,0.00,Wunderground v.1.15,2013-02-04 18:52:00,
2013-02-04 12:58:00,40.5,33.5,29.86,SW,218,1.0,3.0,76,0.00,,,0.00,Wunderground v.1.15,2013-02-04 18:58:00,
2013-02-04 13:04:00,40.9,33.9,29.85,WSW,246,1.0,2.0,76,0.00,,,0.00,Wunderground v.1.15,2013-02-04 19:04:00,
2013-02-04 13:09:00,41.1,33.8,29.85,SSE,160,1.0,2.0,75,0.00,,,0.00,Wunderground v.1.15,2013-02-04 19:09:00,
2013-02-04 13:14:00,41.1,33.4,29.85,SW,235,1.0,1.0,74,0.00,,,0.00,Wunderground v.1.15,2013-02-04 19:14:00,
2013-02-04 13:20:00,41.2,33.5,29.85,WSW,246,1.0,1.0,74,0.00,,,0.00,Wunderground v.1.15,2013-02-04 19:20:00,
2013-02-04 13:25:00,41.2,33.5,29.84,SE,131,1.0,5.0,74,0.00,,,0.00,Wunderground v.1.15,2013-02-04 19:25:00,
2013-02-04 13:30:00,41.3,34.0,29.84,WNW,283,1.0,1.0,75,0.00,,,0.00,Wunderground v.1.15,2013-02-04 19:30:00,
2013-02-04 13:35:00,41.5,34.5,29.84,SSW,210,1.0,1.0,76,0.00,,,0.00,Wunderground v.1.15,2013-02-04 19:35:00,
2013-02-04 13:40:00,41.8,34.5,29.84,SSW,203,1.0,3.0,75,0.00,,,0.00,Wunderground v.1.15,2013-02-04 19:40:00,
2013-02-04 13:46:00,42.4,35.0,29.84,SW,235,1.0,3.0,75,0.00,,,0.00,Wunderground v.1.15,2013-02-04 19:46:00,
2013-02-04 13:51:00,43.0,35.3,29.83,WSW,248,1.0,3.0,74,0.00,,,0.00,Wunderground v.1.15,2013-02-04 19:51:00,
2013-02-04 13:56:00,43.5,35.8,29.83,WSW,248,1.0,4.0,74,0.00,,,0.00,Wunderground v.1.15,2013-02-04 19:56:00,
2013-02-04 14:02:00,43.9,36.1,29.83,West,275,1.0,3.0,74,0.00,,,0.00,Wunderground v.1.15,2013-02-04 20:02:00,
2013-02-04 14:07:00,44.1,36.0,29.83,WSW,253,2.0,5.0,73,0.00,,,0.00,Wunderground v.1.15,2013-02-04 20:07:00,
2013-02-04 14:12:00,44.2,36.4,29.83,WSW,249,3.0,6.0,74,0.00,,,0.00,Wunderground v.1.15,2013-02-04 20:12:00,
2013-02-04 14:17:00,44.3,36.5,29.83,WSW,250,3.0,6.0,74,0.00,,,0.00,Wunderground v.1.15,2013-02-04 20:17:00,
2013-02-04 14:22:00,44.4,37.0,29.83,SSW,195,3.0,4.0,75,0.00,,,0.00,Wunderground v.1.15,2013-02-04 20:22:00,
2013-02-04 14:28:00,44.8,37.7,29.83,SW,226,3.0,4.0,76,0.00,,,0.00,Wunderground v.1.15,2013-02-04 20:28:00,
2013-02-04 14:33:00,45.2,37.7,29.83,WSW,252,3.0,7.0,75,0.00,,,0.00,Wunderground v.1.15,2013-02-04 20:33:00,
2013-02-04 14:38:00,45.7,38.6,29.82,WNW,286,4.0,7.0,76,0.00,,,0.00,Wunderground v.1.15,2013-02-04 20:38:00,
2013-02-04 14:43:00,45.7,38.2,29.83,WSW,243,5.0,9.0,75,0.00,,,0.00,Wunderground v.1.15,2013-02-04 20:43:00,
2013-02-04 14:49:00,45.8,38.7,29.83,WSW,254,5.0,9.0,76,0.00,,,0.00,Wunderground v.1.15,2013-02-04 20:49:00,
2013-02-04 14:55:00,46.2,39.1,29.83,West,264,5.0,7.0,76,0.00,,,0.00,Wunderground v.1.15,2013-02-04 20:55:00,
2013-02-04 15:00:00,46.2,39.1,29.83,West,262,5.0,6.0,76,0.00,,,0.00,Wunderground v.1.15,2013-02-04 21:00:00,
2013-02-04 15:06:00,46.2,39.1,29.83,West,259,5.0,6.0,76,0.00,,,0.00,Wunderground v.1.15,2013-02-04 21:06:00,
2013-02-04 15:11:00,46.3,39.1,29.83,West,271,4.0,4.0,76,0.00,,,0.00,Wunderground v.1.15,2013-02-04 21:11:00,
2013-02-04 15:16:00,46.4,39.6,29.83,West,278,4.0,4.0,77,0.00,,,0.00,Wunderground v.1.15,2013-02-04 21:16:00,
2013-02-04 15:21:00,46.7,39.9,29.83,WSW,252,4.0,5.0,77,0.00,,,0.00,Wunderground v.1.15,2013-02-04 21:21:00,
2013-02-04 15:27:00,46.5,39.7,29.83,WSW,243,4.0,5.0,77,0.00,,,0.00,Wunderground v.1.15,2013-02-04 21:27:00,
2013-02-04 15:32:00,46.8,40.0,29.83,WSW,246,4.0,5.0,77,0.00,,,0.00,Wunderground v.1.15,2013-02-04 21:32:00,
2013-02-04 15:37:00,47.2,40.4,29.83,WSW,253,4.0,5.0,77,0.00,,,0.00,Wunderground v.1.15,2013-02-04 21:37:00,
2013-02-04 15:42:00,47.4,40.2,29.83,SSW,207,4.0,8.0,76,0.00,,,0.00,Wunderground v.1.15,2013-02-04 21:42:00,
2013-02-04 15:47:00,47.6,40.4,29.83,West,271,4.0,8.0,76,0.00,,,0.00,Wunderground v.1.15,2013-02-04 21:47:00,
2013-02-04 15:52:00,47.7,40.5,29.83,WNW,282,3.0,3.0,76,0.00,,,0.00,Wunderground v.1.15,2013-02-04 21:52:00,
2013-02-04 15:58:00,47.9,40.7,29.83,WSW,239,2.0,4.0,76,0.00,,,0.00,Wunderground v.1.15,2013-02-04 21:58:00,
2013-02-04 16:04:00,47.9,40.7,29.83,West,275,3.0,6.0,76,0.00,,,0.00,Wunderground v.1.15,2013-02-04 22:04:00,
2013-02-04 16:09:00,47.8,40.9,29.83,West,275,3.0,6.0,77,0.00,,,0.00,Wunderground v.1.15,2013-02-04 22:09:00,
2013-02-04 16:14:00,47.7,40.8,29.83,WNW,288,3.0,4.0,77,0.00,,,0.00,Wunderground v.1.15,2013-02-04 22:14:00,
2013-02-04 16:19:00,47.6,40.7,29.83,West,267,4.0,5.0,77,0.00,,,0.00,Wunderground v.1.15,2013-02-04 22:19:00,
2013-02-04 16:24:00,47.7,40.8,29.83,West,269,4.0,8.0,77,0.00,,,0.00,Wunderground v.1.15,2013-02-04 22:24:00,
2013-02-04 16:29:00,47.7,40.8,29.83,WNW,291,3.0,8.0,77,0.00,,,0.00,Wunderground v.1.15,2013-02-04 22:29:00,
2013-02-04 16:34:00,47.6,41.1,29.83,West,278,3.0,5.0,78,0.00,,,0.00,Wunderground v.1.15,2013-02-04 22:34:00,
2013-02-04 16:40:00,47.6,41.1,29.83,West,278,3.0,11.0,78,0.00,,,0.00,Wunderground v.1.15,2013-02-04 22:40:00,
2013-02-04 16:45:00,47.5,41.0,29.83,West,280,4.0,11.0,78,0.00,,,0.00,Wunderground v.1.15,2013-02-04 22:45:00,
2013-02-04 16:50:00,47.3,41.1,29.83,WSW,245,4.0,6.0,79,0.00,,,0.00,Wunderground v.1.15,2013-02-04 22:50:00,
2013-02-04 16:55:00,47.1,40.9,29.83,WSW,240,3.0,6.0,79,0.00,,,0.00,Wunderground v.1.15,2013-02-04 22:55:00,
2013-02-04 17:00:00,46.8,41.0,29.83,WNW,297,3.0,3.0,80,0.00,,,0.00,Wunderground v.1.15,2013-02-04 23:00:00,
2013-02-04 17:06:00,46.4,40.6,29.83,SW,214,2.0,5.0,80,0.00,,,0.00,Wunderground v.1.15,2013-02-04 23:06:00,
2013-02-04 17:11:00,46.0,40.5,29.83,SW,218,1.0,1.0,81,0.00,,,0.00,Wunderground v.1.15,2013-02-04 23:11:00,
2013-02-04 17:17:00,45.4,40.2,29.83,WSW,246,0.0,1.0,82,0.00,,,0.00,Wunderground v.1.15,2013-02-04 23:17:00,
2013-02-04 17:22:00,44.9,40.0,29.83,SW,233,0.0,1.0,83,0.00,,,0.00,Wunderground v.1.15,2013-02-04 23:22:00,
2013-02-04 17:27:00,44.3,39.5,29.83,South,191,0.0,1.0,83,0.00,,,0.00,Wunderground v.1.15,2013-02-04 23:27:00,
2013-02-04 17:33:00,43.5,39.0,29.83,WSW,250,0.0,0.0,84,0.00,,,0.00,Wunderground v.1.15,2013-02-04 23:33:00,
2013-02-04 17:38:00,42.8,38.6,29.84,SW,235,0.0,0.0,85,0.00,,,0.00,Wunderground v.1.15,2013-02-04 23:38:00,
2013-02-04 17:43:00,42.3,38.7,29.84,NW,311,0.0,0.0,87,0.00,,,0.00,Wunderground v.1.15,2013-02-04 23:43:00,
2013-02-04 17:48:00,41.7,38.1,29.84,NW,310,0.0,0.0,87,0.00,,,0.00,Wunderground v.1.15,2013-02-04 23:48:00,
2013-02-04 17:53:00,41.2,37.6,29.84,WNW,302,0.0,0.0,87,0.00,,,0.00,Wunderground v.1.15,2013-02-04 23:53:00,
2013-02-04 17:59:00,40.6,37.3,29.85,East,101,0.0,0.0,88,0.00,,,0.00,Wunderground v.1.15,2013-02-04 23:59:00,
2013-02-04 18:04:00,40.1,37.1,29.85,SE,124,0.0,0.0,89,0.00,,,0.00,Wunderground v.1.15,2013-02-05 00:04:00,
2013-02-04 18:10:00,39.5,36.5,29.85,SE,124,0.0,0.0,89,0.00,,,0.00,Wunderground v.1.15,2013-02-05 00:10:00,
2013-02-04 18:15:00,39.1,36.4,29.85,SSW,197,0.0,0.0,90,0.00,,,0.00,Wunderground v.1.15,2013-02-05 00:15:00,
2013-02-04 18:20:00,38.9,36.5,29.86,SSW,201,0.0,0.0,91,0.00,,,0.00,Wunderground v.1.15,2013-02-05 00:20:00,
2013-02-04 18:26:00,38.9,36.8,29.86,SSW,201,0.0,0.0,92,0.00,,,0.00,Wunderground v.1.15,2013-02-05 00:26:00,
2013-02-04 18:31:00,38.5,36.4,29.86,West,267,0.0,0.0,92,0.00,,,0.00,Wunderground v.1.15,2013-02-05 00:31:00,
2013-02-04 18:36:00,38.7,37.1,29.87,WSW,249,0.0,0.0,94,0.00,,,0.00,Wunderground v.1.15,2013-02-05 00:36:00,
2013-02-04 18:41:00,38.8,36.9,29.87,WNW,288,0.0,1.0,93,0.00,,,0.00,Wunderground v.1.15,2013-02-05 00:41:00,
2013-02-04 18:47:00,39.1,37.2,29.87,West,276,0.0,1.0,93,0.00,,,0.00,Wunderground v.1.15,2013-02-05 00:47:00,
2013-02-04 18:52:00,38.7,36.6,29.88,West,278,0.0,1.0,92,0.00,,,0.00,Wunderground v.1.15,2013-02-05 00:52:00,
2013-02-04 18:57:00,38.9,37.0,29.89,NW,325,1.0,6.0,93,0.00,,,0.00,Wunderground v.1.15,2013-02-05 00:57:00,
2013-02-04 19:03:00,39.7,38.1,29.89,NW,305,4.0,4.0,94,0.00,,,0.00,Wunderground v.1.15,2013-02-05 01:03:00,
2013-02-04 19:09:00,40.2,38.3,29.89,NW,308,4.0,8.0,93,0.00,,,0.00,Wunderground v.1.15,2013-02-05 01:09:00,
2013-02-04 19:14:00,40.9,37.0,29.89,NNW,329,5.0,7.0,86,0.00,,,0.00,Wunderground v.1.15,2013-02-05 01:14:00,
2013-02-04 19:19:00,41.0,36.5,29.90,NW,320,6.0,7.0,84,0.00,,,0.00,Wunderground v.1.15,2013-02-05 01:19:00,
2013-02-04 19:25:00,40.9,35.8,29.90,NNW,340,5.0,7.0,82,0.00,,,0.00,Wunderground v.1.15,2013-02-05 01:25:00,
2013-02-04 19:30:00,41.0,35.6,29.90,NNW,335,6.0,6.0,81,0.00,,,0.00,Wunderground v.1.15,2013-02-05 01:30:00,
2013-02-04 19:36:00,40.7,35.3,29.90,NNW,333,5.0,7.0,81,0.00,,,0.00,Wunderground v.1.15,2013-02-05 01:36:00,
2013-02-04 19:41:00,40.4,35.0,29.90,NNE,12,5.0,9.0,81,0.00,,,0.00,Wunderground v.1.15,2013-02-05 01:41:00,
2013-02-04 19:46:00,40.2,34.8,29.90,NNW,332,6.0,10.0,81,0.00,,,0.00,Wunderground v.1.15,2013-02-05 01:46:00,
2013-02-04 19:52:00,39.9,34.5,29.91,NNW,342,6.0,7.0,81,0.00,,,0.00,Wunderground v.1.15,2013-02-05 01:52:00,
2013-02-04 19:57:00,39.6,34.2,29.91,NNW,334,6.0,9.0,81,0.00,,,0.00,Wunderground v.1.15,2013-02-05 01:57:00,
2013-02-04 20:03:00,39.3,34.0,29.91,NNE,16,7.0,13.0,81,0.00,,,0.00,Wunderground v.1.15,2013-02-05 02:03:00,
2013-02-04 20:08:00,38.9,33.9,29.92,North,7,6.0,13.0,82,0.00,,,0.00,Wunderground v.1.15,2013-02-05 02:08:00,
2013-02-04 20:13:00,38.7,33.7,29.92,North,6,6.0,6.0,82,0.00,,,0.00,Wunderground v.1.15,2013-02-05 02:13:00,
2013-02-04 20:18:00,38.4,33.4,29.93,NNW,338,6.0,7.0,82,0.00,,,0.00,Wunderground v.1.15,2013-02-05 02:18:00,
2013-02-04 20:24:00,38.1,33.4,29.93,NNE,27,4.0,5.0,83,0.00,,,0.00,Wunderground v.1.15,2013-02-05 02:24:00,
2013-02-04 20:29:00,37.8,33.1,29.93,North,353,3.0,5.0,83,0.00,,,0.00,Wunderground v.1.15,2013-02-05 02:29:00,
2013-02-04 20:34:00,37.6,33.2,29.93,North,356,4.0,6.0,84,0.00,,,0.00,Wunderground v.1.15,2013-02-05 02:34:00,
2013-02-04 20:40:00,37.3,32.9,29.93,NNW,340,6.0,7.0,84,0.00,,,0.00,Wunderground v.1.15,2013-02-05 02:40:00,
2013-02-04 20:45:00,37.1,32.7,29.93,NNE,18,5.0,7.0,84,0.00,,,0.00,Wunderground v.1.15,2013-02-05 02:45:00,
2013-02-04 20:51:00,36.9,32.5,29.93,NNE,27,4.0,5.0,84,0.00,,,0.00,Wunderground v.1.15,2013-02-05 02:51:00,
2013-02-04 20:56:00,36.7,32.3,29.92,NNE,33,3.0,5.0,84,0.00,,,0.00,Wunderground v.1.15,2013-02-05 02:56:00,
2013-02-04 21:02:00,36.4,32.3,29.92,NE,39,3.0,4.0,85,0.00,,,0.00,Wunderground v.1.15,2013-02-05 03:02:00,
2013-02-04 21:07:00,36.1,32.3,29.92,NE,43,3.0,5.0,86,0.00,,,0.00,Wunderground v.1.15,2013-02-05 03:07:00,
2013-02-04 21:12:00,35.8,32.0,29.92,East,89,2.0,2.0,86,0.00,,,0.00,Wunderground v.1.15,2013-02-05 03:12:00,
2013-02-04 21:18:00,35.8,32.0,29.93,North,351,3.0,7.0,86,0.00,,,0.00,Wunderground v.1.15,2013-02-05 03:18:00,
2013-02-04 21:23:00,36.0,31.9,29.94,North,354,5.0,6.0,85,0.00,,,0.00,Wunderground v.1.15,2013-02-05 03:23:00,
2013-02-04 21:28:00,36.0,31.9,29.94,NNE,20,5.0,6.0,85,0.00,,,0.00,Wunderground v.1.15,2013-02-05 03:28:00,
2013-02-04 21:34:00,35.9,32.1,29.94,NNE,16,5.0,7.0,86,0.00,,,0.00,Wunderground v.1.15,2013-02-05 03:34:00,
2013-02-04 21:39:00,35.8,32.0,29.94,North,6,5.0,7.0,86,0.00,,,0.00,Wunderground v.1.15,2013-02-05 03:39:00,
2013-02-04 21:44:00,35.7,31.9,29.95,NNE,16,4.0,4.0,86,0.00,,,0.00,Wunderground v.1.15,2013-02-05 03:44:00,
2013-02-04 21:50:00,35.6,31.8,29.95,North,4,4.0,6.0,86,0.00,,,0.00,Wunderground v.1.15,2013-02-05 03:50:00,
2013-02-04 21:55:00,35.5,31.7,29.95,North,359,6.0,9.0,86,0.00,,,0.00,Wunderground v.1.15,2013-02-05 03:55:00,
2013-02-04 22:00:00,35.3,31.5,29.95,NNW,346,7.0,7.0,86,0.00,,,0.00,Wunderground v.1.15,2013-02-05 04:00:00,
2013-02-04 22:06:00,35.2,31.1,29.95,North,356,6.0,10.0,85,0.00,,,0.00,Wunderground v.1.15,2013-02-05 04:06:00,
2013-02-04 22:11:00,35.0,30.9,29.95,NNE,22,5.0,7.0,85,0.00,,,0.00,Wunderground v.1.15,2013-02-05 04:11:00,
2013-02-04 22:17:00,34.8,30.8,29.96,North,6,6.0,8.0,85,0.00,,,0.00,Wunderground v.1.15,2013-02-05 04:17:00,
2013-02-04 22:22:00,34.7,30.9,29.96,NNE,12,6.0,6.0,86,0.00,,,0.00,Wunderground v.1.15,2013-02-05 04:22:00,
2013-02-04 22:27:00,34.6,30.8,29.96,NNE,32,4.0,7.0,86,0.00,,,0.00,Wunderground v.1.15,2013-02-05 04:27:00,
2013-02-04 22:32:00,34.4,30.9,29.96,North,350,3.0,5.0,87,0.00,,,0.00,Wunderground v.1.15,2013-02-05 04:32:00,
2013-02-04 22:37:00,34.4,31.2,29.96,North,350,3.0,7.0,88,0.00,,,0.00,Wunderground v.1.15,2013-02-05 04:37:00,
2013-02-04 22:43:00,34.3,30.8,29.96,NNW,340,5.0,6.0,87,0.00,,,0.00,Wunderground v.1.15,2013-02-05 04:43:00,
2013-02-04 22:48:00,34.1,30.6,29.96,NNE,17,5.0,6.0,87,0.00,,,0.00,Wunderground v.1.15,2013-02-05 04:48:00,
2013-02-04 22:53:00,34.0,30.3,29.96,NNE,13,4.0,5.0,86,0.00,,,0.00,Wunderground v.1.15,2013-02-05 04:53:00,
2013-02-04 22:58:00,33.9,30.4,29.96,NNW,339,4.0,5.0,87,0.00,,,0.00,Wunderground v.1.15,2013-02-05 04:58:00,
2013-02-04 23:00:00,33.8,30.3,29.96,NNE,16,4.0,4.0,87,0.00,,,0.00,Wunderground v.1.15,2013-02-05 05:00:00,
2013-02-04 23:02:00,33.7,30.2,29.96,NNE,16,4.0,4.0,87,0.00,,,0.00,Wunderground v.1.15,2013-02-05 05:02:00,
2013-02-04 23:04:00,33.7,30.2,29.96,NNE,13,4.0,6.0,87,0.00,,,0.00,Wunderground v.1.15,2013-02-05 05:04:00,
2013-02-04 23:10:00,33.6,30.1,29.95,North,1,4.0,4.0,87,0.00,,,0.00,Wunderground v.1.15,2013-02-05 05:10:00,
2013-02-04 23:11:00,33.6,30.1,29.95,NNE,16,5.0,5.0,87,0.00,,,0.00,Wunderground v.1.15,2013-02-05 05:11:00,
2013-02-04 23:16:00,33.5,30.0,29.95,NNW,347,4.0,7.0,87,0.00,,,0.00,Wunderground v.1.15,2013-02-05 05:16:00,
2013-02-04 23:22:00,33.4,29.9,29.95,NNW,334,4.0,4.0,87,0.00,,,0.00,Wunderground v.1.15,2013-02-05 05:22:00,
2013-02-04 23:27:00,33.3,29.8,29.95,NNE,32,3.0,4.0,87,0.00,,,0.00,Wunderground v.1.15,2013-02-05 05:27:00,
2013-02-04 23:33:00,33.3,29.8,29.95,North,356,2.0,4.0,87,0.00,,,0.00,Wunderground v.1.15,2013-02-05 05:33:00,
2013-02-04 23:38:00,33.2,30.0,29.95,North,5,3.0,4.0,88,0.00,,,0.00,Wunderground v.1.15,2013-02-05 05:38:00,
2013-02-04 23:43:00,33.1,29.9,29.96,NNE,22,3.0,4.0,88,0.00,,,0.00,Wunderground v.1.15,2013-02-05 05:43:00,
2013-02-04 23:48:00,33.1,29.9,29.96,North,356,2.0,4.0,88,0.00,,,0.00,Wunderground v.1.15,2013-02-05 05:48:00,
2013-02-04 23:54:00,33.0,29.8,29.97,NW,325,3.0,6.0,88,0.00,,,0.00,Wunderground v.1.15,2013-02-05 05:54:00,
2013-02-04 23:59:00,32.9,29.7,29.96,North,7,4.0,6.0,88,0.00,,,0.00,Wunderground v.1.15,2013-02-05 05:59:00,